Creedmoor, North Carolina
Current Conditions -  °F | °C
As of 6:51 AM on Thursday 29 Jan 2015 (Local Time) from KRDU Reporting Station
Broken Clouds Broken Clouds  
Wind Chill: 24°   Ceiling: 25000
Heat Index: 24°   Visibility: 10mi
Dew Point: 14°   Wind: 0mph
Humidity: 65%   Direction: NA
Pressure: 30.35"   Gusts: NA
Location:  36.12°N, 78.69°W
Report Text: KRDU 291151Z 00000KT 10SM FEW200 BKN250 M04/M10 A3035 RMK AO2 SLP281 T10441100 11028 21050 53004
Loading
Personal Weather Stations






























Interactive Weather Map New forecast layout! Learn more

10-Day Weather Forecast

Advertisements
Track Severe Weather on mobile